sensor_id;sensor_type;location;lat;lon;timestamp;temperature;humidity
79244;SHT31;68672;42.676;23.356;2023-03-22T00:00:51;11.30;72.98
79244;SHT31;68672;42.676;23.356;2023-03-22T00:03:17;11.27;73.26
79244;SHT31;68672;42.676;23.356;2023-03-22T00:05:45;11.22;73.82
79244;SHT31;68672;42.676;23.356;2023-03-22T00:08:11;11.23;73.76
79244;SHT31;68672;42.676;23.356;2023-03-22T00:10:38;11.20;74.20
79244;SHT31;68672;42.676;23.356;2023-03-22T00:13:05;11.18;74.46
79244;SHT31;68672;42.676;23.356;2023-03-22T00:15:31;11.22;74.13
79244;SHT31;68672;42.676;23.356;2023-03-22T00:17:59;11.19;73.88
79244;SHT31;68672;42.676;23.356;2023-03-22T00:20:26;11.20;74.13
79244;SHT31;68672;42.676;23.356;2023-03-22T00:22:57;11.25;74.76
79244;SHT31;68672;42.676;23.356;2023-03-22T00:25:22;11.13;74.91
79244;SHT31;68672;42.676;23.356;2023-03-22T00:27:48;11.12;75.01
79244;SHT31;68672;42.676;23.356;2023-03-22T00:30:13;11.15;74.61
79244;SHT31;68672;42.676;23.356;2023-03-22T00:32:39;11.11;74.90
79244;SHT31;68672;42.676;23.356;2023-03-22T00:35:07;11.03;74.78
79244;SHT31;68672;42.676;23.356;2023-03-22T00:37:33;11.03;74.69
79244;SHT31;68672;42.676;23.356;2023-03-22T00:40:08;10.99;74.67
79244;SHT31;68672;42.676;23.356;2023-03-22T00:42:35;10.99;74.83
79244;SHT31;68672;42.676;23.356;2023-03-22T00:45:01;11.02;75.26
79244;SHT31;68672;42.676;23.356;2023-03-22T00:47:26;10.99;75.52
79244;SHT31;68672;42.676;23.356;2023-03-22T00:49:52;10.94;75.61
79244;SHT31;68672;42.676;23.356;2023-03-22T00:52:17;10.95;74.71
79244;SHT31;68672;42.676;23.356;2023-03-22T00:54:43;10.89;74.94
79244;SHT31;68672;42.676;23.356;2023-03-22T00:57:08;10.89;75.03
79244;SHT31;68672;42.676;23.356;2023-03-22T00:59:33;10.84;75.08
79244;SHT31;68672;42.676;23.356;2023-03-22T01:02:04;10.84;75.20
79244;SHT31;68672;42.676;23.356;2023-03-22T01:04:31;10.81;75.56
79244;SHT31;68672;42.676;23.356;2023-03-22T01:06:57;10.78;75.68
79244;SHT31;68672;42.676;23.356;2023-03-22T01:09:27;10.79;75.44
79244;SHT31;68672;42.676;23.356;2023-03-22T01:11:58;10.76;75.80
79244;SHT31;68672;42.676;23.356;2023-03-22T01:14:29;10.76;75.73
79244;SHT31;68672;42.676;23.356;2023-03-22T01:16:56;10.79;75.74
79244;SHT31;68672;42.676;23.356;2023-03-22T01:19:22;10.81;75.58
79244;SHT31;68672;42.676;23.356;2023-03-22T01:21:49;10.81;75.66
79244;SHT31;68672;42.676;23.356;2023-03-22T01:24:14;10.85;75.46
79244;SHT31;68672;42.676;23.356;2023-03-22T01:26:41;10.82;75.03
79244;SHT31;68672;42.676;23.356;2023-03-22T01:29:06;10.81;75.22
79244;SHT31;68672;42.676;23.356;2023-03-22T01:31:32;10.84;75.07
79244;SHT31;68672;42.676;23.356;2023-03-22T01:33:57;10.81;75.24
79244;SHT31;68672;42.676;23.356;2023-03-22T01:36:23;10.79;75.64
79244;SHT31;68672;42.676;23.356;2023-03-22T01:38:48;10.75;75.93
79244;SHT31;68672;42.676;23.356;2023-03-22T01:41:15;10.71;75.89
79244;SHT31;68672;42.676;23.356;2023-03-22T01:43:44;10.68;75.93
79244;SHT31;68672;42.676;23.356;2023-03-22T01:46:09;10.69;75.18
79244;SHT31;68672;42.676;23.356;2023-03-22T01:48:53;10.67;74.88
79244;SHT31;68672;42.676;23.356;2023-03-22T01:51:21;10.58;75.21
79244;SHT31;68672;42.676;23.356;2023-03-22T01:53:55;10.53;75.45
79244;SHT31;68672;42.676;23.356;2023-03-22T01:56:24;10.51;75.72
79244;SHT31;68672;42.676;23.356;2023-03-22T01:58:51;10.55;75.72
79244;SHT31;68672;42.676;23.356;2023-03-22T02:01:21;10.57;75.64
79244;SHT31;68672;42.676;23.356;2023-03-22T02:03:54;10.55;75.79
79244;SHT31;68672;42.676;23.356;2023-03-22T02:06:21;10.51;75.57
79244;SHT31;68672;42.676;23.356;2023-03-22T02:08:47;10.53;75.50
79244;SHT31;68672;42.676;23.356;2023-03-22T02:11:20;10.51;75.55
79244;SHT31;68672;42.676;23.356;2023-03-22T02:16:33;10.43;75.61
79244;SHT31;68672;42.676;23.356;2023-03-22T02:36:11;10.33;76.56
79244;SHT31;68672;42.676;23.356;2023-03-22T02:47:40;10.21;76.72
79244;SHT31;68672;42.676;23.356;2023-03-22T02:50:09;10.27;76.72
79244;SHT31;68672;42.676;23.356;2023-03-22T02:56:09;10.40;76.20
79244;SHT31;68672;42.676;23.356;2023-03-22T02:58:37;10.40;75.32
79244;SHT31;68672;42.676;23.356;2023-03-22T03:01:07;10.37;75.36
79244;SHT31;68672;42.676;23.356;2023-03-22T03:03:35;10.34;75.76
79244;SHT31;68672;42.676;23.356;2023-03-22T03:06:11;10.37;75.97
79244;SHT31;68672;42.676;23.356;2023-03-22T03:08:38;10.33;75.95
79244;SHT31;68672;42.676;23.356;2023-03-22T03:11:04;10.36;75.78
79244;SHT31;68672;42.676;23.356;2023-03-22T03:13:29;10.37;75.82
79244;SHT31;68672;42.676;23.356;2023-03-22T03:15:56;10.37;75.81
79244;SHT31;68672;42.676;23.356;2023-03-22T03:18:41;10.33;75.72
79244;SHT31;68672;42.676;23.356;2023-03-22T03:21:33;10.33;75.36
79244;SHT31;68672;42.676;23.356;2023-03-22T03:26:59;10.34;75.31
79244;SHT31;68672;42.676;23.356;2023-03-22T03:32:52;10.33;75.59
79244;SHT31;68672;42.676;23.356;2023-03-22T03:35:29;10.32;75.66
79244;SHT31;68672;42.676;23.356;2023-03-22T03:38:08;10.30;75.70
79244;SHT31;68672;42.676;23.356;2023-03-22T03:40:44;10.32;75.81
79244;SHT31;68672;42.676;23.356;2023-03-22T03:43:11;10.34;76.01
79244;SHT31;68672;42.676;23.356;2023-03-22T03:45:38;10.34;76.02
79244;SHT31;68672;42.676;23.356;2023-03-22T03:48:08;10.36;75.90
79244;SHT31;68672;42.676;23.356;2023-03-22T03:50:36;10.40;75.58
79244;SHT31;68672;42.676;23.356;2023-03-22T03:53:01;10.40;75.24
79244;SHT31;68672;42.676;23.356;2023-03-22T03:55:30;10.34;75.55
79244;SHT31;68672;42.676;23.356;2023-03-22T03:57:56;10.34;75.60
79244;SHT31;68672;42.676;23.356;2023-03-22T04:00:22;10.33;75.48
79244;SHT31;68672;42.676;23.356;2023-03-22T04:02:50;10.30;75.43
79244;SHT31;68672;42.676;23.356;2023-03-22T04:05:15;10.30;75.33
79244;SHT31;68672;42.676;23.356;2023-03-22T04:07:41;10.30;75.46
79244;SHT31;68672;42.676;23.356;2023-03-22T04:10:07;10.30;75.23
79244;SHT31;68672;42.676;23.356;2023-03-22T04:12:32;10.29;75.30
79244;SHT31;68672;42.676;23.356;2023-03-22T04:14:58;10.24;75.09
79244;SHT31;68672;42.676;23.356;2023-03-22T04:17:23;10.21;75.58
79244;SHT31;68672;42.676;23.356;2023-03-22T04:19:49;10.21;75.79
79244;SHT31;68672;42.676;23.356;2023-03-22T04:22:17;10.23;75.83
79244;SHT31;68672;42.676;23.356;2023-03-22T04:24:43;10.23;75.57
79244;SHT31;68672;42.676;23.356;2023-03-22T04:27:15;10.21;75.68
79244;SHT31;68672;42.676;23.356;2023-03-22T04:29:41;10.21;75.67
79244;SHT31;68672;42.676;23.356;2023-03-22T04:32:21;10.23;75.77
79244;SHT31;68672;42.676;23.356;2023-03-22T04:34:51;10.24;75.54
79244;SHT31;68672;42.676;23.356;2023-03-22T04:37:18;10.23;75.69
79244;SHT31;68672;42.676;23.356;2023-03-22T04:39:46;10.23;75.78
79244;SHT31;68672;42.676;23.356;2023-03-22T04:42:12;10.18;75.83
79244;SHT31;68672;42.676;23.356;2023-03-22T04:44:37;10.20;75.75
79244;SHT31;68672;42.676;23.356;2023-03-22T04:47:03;10.17;76.05
79244;SHT31;68672;42.676;23.356;2023-03-22T04:49:28;10.17;76.02
79244;SHT31;68672;42.676;23.356;2023-03-22T04:51:56;10.14;76.17
79244;SHT31;68672;42.676;23.356;2023-03-22T04:54:22;10.17;75.91
79244;SHT31;68672;42.676;23.356;2023-03-22T04:56:48;10.17;76.11
79244;SHT31;68672;42.676;23.356;2023-03-22T04:59:13;10.13;75.79
79244;SHT31;68672;42.676;23.356;2023-03-22T05:01:45;10.12;76.07
79244;SHT31;68672;42.676;23.356;2023-03-22T05:04:10;10.06;76.37
79244;SHT31;68672;42.676;23.356;2023-03-22T05:06:42;10.07;76.51
79244;SHT31;68672;42.676;23.356;2023-03-22T05:09:08;10.06;76.58
79244;SHT31;68672;42.676;23.356;2023-03-22T05:11:33;10.07;76.55
79244;SHT31;68672;42.676;23.356;2023-03-22T05:13:59;10.04;77.09
79244;SHT31;68672;42.676;23.356;2023-03-22T05:16:24;10.06;76.70
79244;SHT31;68672;42.676;23.356;2023-03-22T05:18:53;10.07;76.68
79244;SHT31;68672;42.676;23.356;2023-03-22T05:21:21;10.12;76.73
79244;SHT31;68672;42.676;23.356;2023-03-22T05:23:47;10.16;76.71
79244;SHT31;68672;42.676;23.356;2023-03-22T05:26:13;10.18;76.30
79244;SHT31;68672;42.676;23.356;2023-03-22T05:28:40;10.23;76.19
79244;SHT31;68672;42.676;23.356;2023-03-22T05:31:09;10.29;76.11
79244;SHT31;68672;42.676;23.356;2023-03-22T05:33:35;10.30;76.20
79244;SHT31;68672;42.676;23.356;2023-03-22T05:36:04;10.34;75.94
79244;SHT31;68672;42.676;23.356;2023-03-22T05:38:30;10.43;75.82
79244;SHT31;68672;42.676;23.356;2023-03-22T05:40:55;10.43;75.67
79244;SHT31;68672;42.676;23.356;2023-03-22T05:43:24;10.45;75.39
79244;SHT31;68672;42.676;23.356;2023-03-22T05:45:49;10.43;75.36
79244;SHT31;68672;42.676;23.356;2023-03-22T05:48:15;10.40;75.56
79244;SHT31;68672;42.676;23.356;2023-03-22T05:50:41;10.43;75.44
79244;SHT31;68672;42.676;23.356;2023-03-22T05:53:06;10.41;75.58
79244;SHT31;68672;42.676;23.356;2023-03-22T05:55:35;10.43;75.76
79244;SHT31;68672;42.676;23.356;2023-03-22T05:58:00;10.44;75.82
79244;SHT31;68672;42.676;23.356;2023-03-22T06:00:30;10.47;75.65
79244;SHT31;68672;42.676;23.356;2023-03-22T06:02:58;10.50;75.73
79244;SHT31;68672;42.676;23.356;2023-03-22T06:05:28;10.50;75.78
79244;SHT31;68672;42.676;23.356;2023-03-22T06:07:55;10.54;75.42
79244;SHT31;68672;42.676;23.356;2023-03-22T06:10:20;10.60;74.91
79244;SHT31;68672;42.676;23.356;2023-03-22T06:12:47;10.58;74.75
79244;SHT31;68672;42.676;23.356;2023-03-22T06:15:12;10.60;74.63
79244;SHT31;68672;42.676;23.356;2023-03-22T06:17:37;10.50;74.69
79244;SHT31;68672;42.676;23.356;2023-03-22T06:20:04;10.48;74.94
79244;SHT31;68672;42.676;23.356;2023-03-22T06:22:34;10.47;75.16
79244;SHT31;68672;42.676;23.356;2023-03-22T06:25:04;10.51;74.83
79244;SHT31;68672;42.676;23.356;2023-03-22T06:27:31;10.53;74.85
79244;SHT31;68672;42.676;23.356;2023-03-22T06:29:57;10.53;74.85
79244;SHT31;68672;42.676;23.356;2023-03-22T06:32:22;10.61;74.92
79244;SHT31;68672;42.676;23.356;2023-03-22T06:34:49;10.69;74.49
79244;SHT31;68672;42.676;23.356;2023-03-22T06:37:14;10.74;74.39
79244;SHT31;68672;42.676;23.356;2023-03-22T06:39:40;10.71;74.34
79244;SHT31;68672;42.676;23.356;2023-03-22T06:42:06;10.76;74.29
79244;SHT31;68672;42.676;23.356;2023-03-22T06:44:31;10.81;74.22
79244;SHT31;68672;42.676;23.356;2023-03-22T06:46:57;10.82;74.40
79244;SHT31;68672;42.676;23.356;2023-03-22T06:49:22;10.89;74.57
79244;SHT31;68672;42.676;23.356;2023-03-22T06:51:48;10.95;74.39
79244;SHT31;68672;42.676;23.356;2023-03-22T06:54:13;10.99;74.16
79244;SHT31;68672;42.676;23.356;2023-03-22T06:56:40;11.08;73.04
79244;SHT31;68672;42.676;23.356;2023-03-22T06:59:06;11.09;73.30
79244;SHT31;68672;42.676;23.356;2023-03-22T07:01:31;11.15;73.71
79244;SHT31;68672;42.676;23.356;2023-03-22T07:03:57;11.20;73.51
79244;SHT31;68672;42.676;23.356;2023-03-22T07:06:22;11.18;72.93
79244;SHT31;68672;42.676;23.356;2023-03-22T07:08:48;11.19;72.92
79244;SHT31;68672;42.676;23.356;2023-03-22T07:11:16;11.13;73.30
79244;SHT31;68672;42.676;23.356;2023-03-22T07:13:41;11.22;73.82
79244;SHT31;68672;42.676;23.356;2023-03-22T07:16:07;11.26;73.82
79244;SHT31;68672;42.676;23.356;2023-03-22T07:18:33;11.30;72.57
79244;SHT31;68672;42.676;23.356;2023-03-22T07:21:04;11.32;72.38
79244;SHT31;68672;42.676;23.356;2023-03-22T07:23:31;11.39;72.14
79244;SHT31;68672;42.676;23.356;2023-03-22T07:25:59;11.40;71.93
79244;SHT31;68672;42.676;23.356;2023-03-22T07:28:25;11.44;72.39
79244;SHT31;68672;42.676;23.356;2023-03-22T07:31:08;11.52;72.00
79244;SHT31;68672;42.676;23.356;2023-03-22T07:33:36;11.56;71.64
79244;SHT31;68672;42.676;23.356;2023-03-22T07:36:03;11.53;71.08
79244;SHT31;68672;42.676;23.356;2023-03-22T07:38:28;11.52;71.27
79244;SHT31;68672;42.676;23.356;2023-03-22T07:40:54;11.50;71.54
79244;SHT31;68672;42.676;23.356;2023-03-22T07:43:21;11.50;71.62
79244;SHT31;68672;42.676;23.356;2023-03-22T07:45:50;11.49;72.07
79244;SHT31;68672;42.676;23.356;2023-03-22T07:48:20;11.50;72.09
79244;SHT31;68672;42.676;23.356;2023-03-22T07:50:45;11.52;71.45
79244;SHT31;68672;42.676;23.356;2023-03-22T07:53:11;11.50;71.49
79244;SHT31;68672;42.676;23.356;2023-03-22T07:55:37;11.50;71.62
79244;SHT31;68672;42.676;23.356;2023-03-22T07:58:03;11.49;71.68
79244;SHT31;68672;42.676;23.356;2023-03-22T08:00:30;11.47;71.63
79244;SHT31;68672;42.676;23.356;2023-03-22T08:02:55;11.47;71.32
79244;SHT31;68672;42.676;23.356;2023-03-22T08:05:20;11.43;71.14
79244;SHT31;68672;42.676;23.356;2023-03-22T08:07:47;11.44;70.94
79244;SHT31;68672;42.676;23.356;2023-03-22T08:10:13;11.46;71.01
79244;SHT31;68672;42.676;23.356;2023-03-22T08:12:38;11.43;71.43
79244;SHT31;68672;42.676;23.356;2023-03-22T08:15:04;11.44;71.70
79244;SHT31;68672;42.676;23.356;2023-03-22T08:17:30;11.50;71.89
79244;SHT31;68672;42.676;23.356;2023-03-22T08:19:55;11.47;72.31
79244;SHT31;68672;42.676;23.356;2023-03-22T08:22:22;11.52;72.68
79244;SHT31;68672;42.676;23.356;2023-03-22T08:24:50;11.57;72.08
79244;SHT31;68672;42.676;23.356;2023-03-22T08:27:16;11.59;71.96
79244;SHT31;68672;42.676;23.356;2023-03-22T08:29:43;11.57;72.10
79244;SHT31;68672;42.676;23.356;2023-03-22T08:32:09;11.62;72.33
79244;SHT31;68672;42.676;23.356;2023-03-22T08:34:36;11.63;72.22
79244;SHT31;68672;42.676;23.356;2023-03-22T08:37:03;11.64;72.02
79244;SHT31;68672;42.676;23.356;2023-03-22T08:39:29;11.60;71.15
79244;SHT31;68672;42.676;23.356;2023-03-22T08:41:54;11.63;71.22
79244;SHT31;68672;42.676;23.356;2023-03-22T08:44:20;11.59;71.48
79244;SHT31;68672;42.676;23.356;2023-03-22T08:46:46;11.59;71.53
79244;SHT31;68672;42.676;23.356;2023-03-22T08:49:11;11.56;71.22
79244;SHT31;68672;42.676;23.356;2023-03-22T08:51:38;11.54;71.11
79244;SHT31;68672;42.676;23.356;2023-03-22T08:54:03;11.57;71.57
79244;SHT31;68672;42.676;23.356;2023-03-22T08:56:29;11.56;72.15
79244;SHT31;68672;42.676;23.356;2023-03-22T08:58:56;11.60;71.82
79244;SHT31;68672;42.676;23.356;2023-03-22T09:01:22;11.64;71.18
79244;SHT31;68672;42.676;23.356;2023-03-22T09:03:47;11.67;71.42
79244;SHT31;68672;42.676;23.356;2023-03-22T09:06:13;11.70;71.87
79244;SHT31;68672;42.676;23.356;2023-03-22T09:08:38;11.71;70.92
79244;SHT31;68672;42.676;23.356;2023-03-22T09:11:07;11.71;71.11
79244;SHT31;68672;42.676;23.356;2023-03-22T09:13:32;11.71;71.36
79244;SHT31;68672;42.676;23.356;2023-03-22T09:15:59;11.73;71.54
79244;SHT31;68672;42.676;23.356;2023-03-22T09:18:24;11.83;71.32
79244;SHT31;68672;42.676;23.356;2023-03-22T09:20:50;11.81;71.16
79244;SHT31;68672;42.676;23.356;2023-03-22T09:23:17;11.84;70.97
79244;SHT31;68672;42.676;23.356;2023-03-22T09:25:44;11.87;70.94
79244;SHT31;68672;42.676;23.356;2023-03-22T09:28:10;11.91;71.32
79244;SHT31;68672;42.676;23.356;2023-03-22T09:30:36;11.91;72.05
79244;SHT31;68672;42.676;23.356;2023-03-22T09:33:02;11.94;71.50
79244;SHT31;68672;42.676;23.356;2023-03-22T09:35:28;11.98;70.84
79244;SHT31;68672;42.676;23.356;2023-03-22T09:37:54;11.98;71.05
79244;SHT31;68672;42.676;23.356;2023-03-22T09:40:24;11.95;71.26
79244;SHT31;68672;42.676;23.356;2023-03-22T09:42:53;12.04;71.26
79244;SHT31;68672;42.676;23.356;2023-03-22T09:45:24;12.04;71.02
79244;SHT31;68672;42.676;23.356;2023-03-22T09:47:57;12.08;70.72
79244;SHT31;68672;42.676;23.356;2023-03-22T09:50:27;12.06;70.87
79244;SHT31;68672;42.676;23.356;2023-03-22T09:52:54;12.06;70.86
79244;SHT31;68672;42.676;23.356;2023-03-22T10:00:57;12.25;70.40
79244;SHT31;68672;42.676;23.356;2023-03-22T10:06:07;12.35;69.54
79244;SHT31;68672;42.676;23.356;2023-03-22T10:09:14;12.41;68.90
79244;SHT31;68672;42.676;23.356;2023-03-22T10:11:45;12.42;69.05
79244;SHT31;68672;42.676;23.356;2023-03-22T10:16:48;12.36;69.34
79244;SHT31;68672;42.676;23.356;2023-03-22T10:19:19;12.38;68.91
79244;SHT31;68672;42.676;23.356;2023-03-22T10:21:49;12.39;68.74
79244;SHT31;68672;42.676;23.356;2023-03-22T10:24:27;12.35;68.58
79244;SHT31;68672;42.676;23.356;2023-03-22T10:26:54;12.42;68.22
79244;SHT31;68672;42.676;23.356;2023-03-22T10:29:39;12.38;68.03
79244;SHT31;68672;42.676;23.356;2023-03-22T10:32:17;12.33;67.39
79244;SHT31;68672;42.676;23.356;2023-03-22T10:34:44;12.39;67.75
79244;SHT31;68672;42.676;23.356;2023-03-22T10:37:16;12.42;68.01
79244;SHT31;68672;42.676;23.356;2023-03-22T10:39:48;12.48;68.18
79244;SHT31;68672;42.676;23.356;2023-03-22T10:42:18;12.46;68.21
79244;SHT31;68672;42.676;23.356;2023-03-22T10:44:46;12.46;68.29
79244;SHT31;68672;42.676;23.356;2023-03-22T10:47:14;12.43;68.31
79244;SHT31;68672;42.676;23.356;2023-03-22T10:49:46;12.48;68.26
79244;SHT31;68672;42.676;23.356;2023-03-22T10:54:57;12.53;67.97
79244;SHT31;68672;42.676;23.356;2023-03-22T10:57:23;12.56;67.21
79244;SHT31;68672;42.676;23.356;2023-03-22T10:59:56;12.56;66.97
79244;SHT31;68672;42.676;23.356;2023-03-22T11:04:52;12.60;65.91
79244;SHT31;68672;42.676;23.356;2023-03-22T11:12:52;12.52;65.88
79244;SHT31;68672;42.676;23.356;2023-03-22T11:15:28;12.52;66.23
79244;SHT31;68672;42.676;23.356;2023-03-22T11:18:03;12.55;65.55
79244;SHT31;68672;42.676;23.356;2023-03-22T11:20:31;12.57;66.07
79244;SHT31;68672;42.676;23.356;2023-03-22T11:23:02;12.56;65.85
79244;SHT31;68672;42.676;23.356;2023-03-22T11:25:31;12.55;65.52
79244;SHT31;68672;42.676;23.356;2023-03-22T11:30:30;12.46;65.32
79244;SHT31;68672;42.676;23.356;2023-03-22T11:35:37;12.42;65.63
79244;SHT31;68672;42.676;23.356;2023-03-22T11:38:03;12.41;65.94
79244;SHT31;68672;42.676;23.356;2023-03-22T11:40:48;12.43;66.09
79244;SHT31;68672;42.676;23.356;2023-03-22T11:43:21;12.49;65.92
79244;SHT31;68672;42.676;23.356;2023-03-22T11:45:50;12.49;65.68
79244;SHT31;68672;42.676;23.356;2023-03-22T11:48:21;12.52;65.09
79244;SHT31;68672;42.676;23.356;2023-03-22T11:50:48;12.50;65.10
79244;SHT31;68672;42.676;23.356;2023-03-22T11:53:19;12.52;65.08
79244;SHT31;68672;42.676;23.356;2023-03-22T11:55:51;12.53;65.11
79244;SHT31;68672;42.676;23.356;2023-03-22T11:58:34;12.53;64.97
79244;SHT31;68672;42.676;23.356;2023-03-22T12:01:17;12.55;65.11
79244;SHT31;68672;42.676;23.356;2023-03-22T12:03:48;12.55;65.36
79244;SHT31;68672;42.676;23.356;2023-03-22T12:06:22;12.59;65.82
79244;SHT31;68672;42.676;23.356;2023-03-22T12:08:52;12.55;65.65
79244;SHT31;68672;42.676;23.356;2023-03-22T12:11:33;12.55;65.60
79244;SHT31;68672;42.676;23.356;2023-03-22T12:14:03;12.53;65.47
79244;SHT31;68672;42.676;23.356;2023-03-22T12:16:48;12.57;65.44
79244;SHT31;68672;42.676;23.356;2023-03-22T12:22:20;12.60;66.03
79244;SHT31;68672;42.676;23.356;2023-03-22T12:24:45;12.67;65.66
79244;SHT31;68672;42.676;23.356;2023-03-22T12:27:15;12.82;65.73
79244;SHT31;68672;42.676;23.356;2023-03-22T12:29:53;12.96;65.33
79244;SHT31;68672;42.676;23.356;2023-03-22T12:32:25;13.14;65.19
79244;SHT31;68672;42.676;23.356;2023-03-22T12:34:54;13.30;64.48
79244;SHT31;68672;42.676;23.356;2023-03-22T12:37:25;13.44;62.66
79244;SHT31;68672;42.676;23.356;2023-03-22T12:42:23;13.52;61.91
79244;SHT31;68672;42.676;23.356;2023-03-22T12:44:56;13.68;61.32
79244;SHT31;68672;42.676;23.356;2023-03-22T12:47:37;13.76;60.76
79244;SHT31;68672;42.676;23.356;2023-03-22T12:50:17;13.86;59.37
79244;SHT31;68672;42.676;23.356;2023-03-22T12:52:47;14.00;58.64
79244;SHT31;68672;42.676;23.356;2023-03-22T12:55:26;14.08;58.96
79244;SHT31;68672;42.676;23.356;2023-03-22T12:57:53;14.09;59.39
79244;SHT31;68672;42.676;23.356;2023-03-22T13:00:44;13.99;59.57
79244;SHT31;68672;42.676;23.356;2023-03-22T13:05:40;13.96;58.75
79244;SHT31;68672;42.676;23.356;2023-03-22T13:08:06;13.90;58.31
79244;SHT31;68672;42.676;23.356;2023-03-22T13:15:39;13.72;59.23
79244;SHT31;68672;42.676;23.356;2023-03-22T13:21:16;13.58;59.61
79244;SHT31;68672;42.676;23.356;2023-03-22T13:24:19;13.48;59.72
79244;SHT31;68672;42.676;23.356;2023-03-22T13:26:48;13.41;60.18
79244;SHT31;68672;42.676;23.356;2023-03-22T13:29:25;13.34;60.76
79244;SHT31;68672;42.676;23.356;2023-03-22T13:31:59;13.28;61.81
79244;SHT31;68672;42.676;23.356;2023-03-22T13:34:37;13.28;63.50
79244;SHT31;68672;42.676;23.356;2023-03-22T13:37:08;13.32;63.36
79244;SHT31;68672;42.676;23.356;2023-03-22T13:39:40;13.38;63.88
79244;SHT31;68672;42.676;23.356;2023-03-22T13:42:35;13.42;63.48
79244;SHT31;68672;42.676;23.356;2023-03-22T13:45:02;13.47;62.70
79244;SHT31;68672;42.676;23.356;2023-03-22T13:47:45;13.75;62.84
79244;SHT31;68672;42.676;23.356;2023-03-22T13:50:20;14.12;62.75
79244;SHT31;68672;42.676;23.356;2023-03-22T13:53:02;14.57;61.71
79244;SHT31;68672;42.676;23.356;2023-03-22T13:58:56;15.22;59.34
79244;SHT31;68672;42.676;23.356;2023-03-22T14:01:04;15.40;58.71
79244;SHT31;68672;42.676;23.356;2023-03-22T14:03:36;15.67;57.53
79244;SHT31;68672;42.676;23.356;2023-03-22T14:08:36;16.66;54.52
79244;SHT31;68672;42.676;23.356;2023-03-22T14:11:13;16.68;54.18
79244;SHT31;68672;42.676;23.356;2023-03-22T14:13:54;16.45;54.32
79244;SHT31;68672;42.676;23.356;2023-03-22T14:16:30;16.28;53.81
79244;SHT31;68672;42.676;23.356;2023-03-22T14:18:58;16.11;54.09
79244;SHT31;68672;42.676;23.356;2023-03-22T14:21:33;15.98;54.58
79244;SHT31;68672;42.676;23.356;2023-03-22T14:24:00;15.79;54.17
79244;SHT31;68672;42.676;23.356;2023-03-22T14:26:33;15.66;54.87
79244;SHT31;68672;42.676;23.356;2023-03-22T14:29:26;15.53;55.11
79244;SHT31;68672;42.676;23.356;2023-03-22T14:32:01;15.36;54.88
79244;SHT31;68672;42.676;23.356;2023-03-22T14:34:32;15.18;55.72
79244;SHT31;68672;42.676;23.356;2023-03-22T14:37:03;15.06;55.67
79244;SHT31;68672;42.676;23.356;2023-03-22T14:39:37;14.91;56.47
79244;SHT31;68672;42.676;23.356;2023-03-22T14:42:25;14.80;57.19
79244;SHT31;68672;42.676;23.356;2023-03-22T14:44:58;14.70;57.31
79244;SHT31;68672;42.676;23.356;2023-03-22T14:47:27;14.68;57.43
79244;SHT31;68672;42.676;23.356;2023-03-22T14:49:57;14.70;57.62
79244;SHT31;68672;42.676;23.356;2023-03-22T14:52:26;14.65;57.91
79244;SHT31;68672;42.676;23.356;2023-03-22T14:54:56;14.77;56.87
79244;SHT31;68672;42.676;23.356;2023-03-22T14:57:27;14.80;56.33
79244;SHT31;68672;42.676;23.356;2023-03-22T14:59:55;14.99;55.99
79244;SHT31;68672;42.676;23.356;2023-03-22T15:02:34;15.36;55.18
79244;SHT31;68672;42.676;23.356;2023-03-22T15:05:05;15.56;54.32
79244;SHT31;68672;42.676;23.356;2023-03-22T15:07:42;15.51;54.07
79244;SHT31;68672;42.676;23.356;2023-03-22T15:10:26;15.42;53.84
79244;SHT31;68672;42.676;23.356;2023-03-22T15:12:55;15.19;53.86
79244;SHT31;68672;42.676;23.356;2023-03-22T15:15:30;15.03;54.62
79244;SHT31;68672;42.676;23.356;2023-03-22T15:17:57;14.91;55.43
79244;SHT31;68672;42.676;23.356;2023-03-22T15:20:27;14.85;55.58
79244;SHT31;68672;42.676;23.356;2023-03-22T15:22:55;14.75;55.79
79244;SHT31;68672;42.676;23.356;2023-03-22T15:25:32;14.61;55.90
79244;SHT31;68672;42.676;23.356;2023-03-22T15:27:59;14.38;56.63
79244;SHT31;68672;42.676;23.356;2023-03-22T15:30:25;14.27;57.20
79244;SHT31;68672;42.676;23.356;2023-03-22T15:32:51;14.20;57.05
79244;SHT31;68672;42.676;23.356;2023-03-22T15:35:17;14.08;57.53
79244;SHT31;68672;42.676;23.356;2023-03-22T15:37:51;14.00;57.84
79244;SHT31;68672;42.676;23.356;2023-03-22T15:40:40;13.96;58.51
79244;SHT31;68672;42.676;23.356;2023-03-22T15:43:36;13.89;58.76
79244;SHT31;68672;42.676;23.356;2023-03-22T15:46:20;13.87;59.15
79244;SHT31;68672;42.676;23.356;2023-03-22T15:49:00;13.82;59.75
79244;SHT31;68672;42.676;23.356;2023-03-22T15:51:29;13.79;59.93
79244;SHT31;68672;42.676;23.356;2023-03-22T15:54:03;13.73;59.60
79244;SHT31;68672;42.676;23.356;2023-03-22T15:56:35;13.68;59.41
79244;SHT31;68672;42.676;23.356;2023-03-22T15:59:02;13.62;58.94
79244;SHT31;68672;42.676;23.356;2023-03-22T16:01:35;13.55;59.74
79244;SHT31;68672;42.676;23.356;2023-03-22T16:04:17;13.50;58.54
79244;SHT31;68672;42.676;23.356;2023-03-22T16:06:42;13.41;59.06
79244;SHT31;68672;42.676;23.356;2023-03-22T16:09:08;13.32;59.80
79244;SHT31;68672;42.676;23.356;2023-03-22T16:11:34;13.22;60.93
79244;SHT31;68672;42.676;23.356;2023-03-22T16:14:03;13.15;62.53
79244;SHT31;68672;42.676;23.356;2023-03-22T16:16:28;13.13;63.05
79244;SHT31;68672;42.676;23.356;2023-03-22T16:18:53;13.07;63.01
79244;SHT31;68672;42.676;23.356;2023-03-22T16:21:26;13.03;61.74
79244;SHT31;68672;42.676;23.356;2023-03-22T16:23:51;13.01;61.75
79244;SHT31;68672;42.676;23.356;2023-03-22T16:26:17;12.96;62.33
79244;SHT31;68672;42.676;23.356;2023-03-22T16:28:44;12.90;62.85
79244;SHT31;68672;42.676;23.356;2023-03-22T16:31:15;12.82;63.65
79244;SHT31;68672;42.676;23.356;2023-03-22T16:33:42;12.75;63.60
79244;SHT31;68672;42.676;23.356;2023-03-22T16:36:12;12.66;63.22
79244;SHT31;68672;42.676;23.356;2023-03-22T16:38:38;12.56;64.28
79244;SHT31;68672;42.676;23.356;2023-03-22T16:41:05;12.48;64.66
79244;SHT31;68672;42.676;23.356;2023-03-22T16:43:31;12.42;65.39
79244;SHT31;68672;42.676;23.356;2023-03-22T16:45:57;12.33;65.80
79244;SHT31;68672;42.676;23.356;2023-03-22T16:48:28;12.28;66.20
79244;SHT31;68672;42.676;23.356;2023-03-22T16:50:53;12.21;66.79
79244;SHT31;68672;42.676;23.356;2023-03-22T16:53:19;12.10;67.16
79244;SHT31;68672;42.676;23.356;2023-03-22T16:55:45;12.05;67.30